Cedar Creek, TX

5:17 AM CDT on August 20, 2014 (GMT -0500)
Austin Bergstrom International | Change Station
CLOSE
Current Station
Airport
Location: Austin Bergstrom,
Elevation: 541 ft
Nearby Weather Stations

Elev 541 ft 30.19 °N, 97.67 °W | Updated 24 minutes ago

Mostly Cloudy
Mostly Cloudy
78 °F
Feels Like 78 °F
N
7
Wind Variable Wind from South

Today
High -- | Low -- °F
--% Chance of Precip.
Yesterday
High -- | Low -- °F
Precip. -- in
7:00 AM 8:06 PM
Waning Crescent, 22% visible
Pressure 29.89 in
Visibility 9.0 miles
Clouds Mostly Cloudy 1700 ft
Dew Point 74 °F
Humidity 87%
Rainfall 0.00 in
Snow Depth Not available.
UV 0 out of 12
Pollen 6.30 out of 12
Ozone Good
PM2.5 Moderate
Flu Activity Not available.
METAR KAUS 200953Z 18006KT 9SM BKN017 26/23 A2993 RMK AO2 SLP121 T02560233

More Conditions Fewer Conditions

Pressure 29.89 in
Visibility 9.0 miles
Clouds Mostly Cloudy 1700 ft
Dew Point 74 °F
Humidity 87%
Rainfall 0.00 in
Snow Depth Not available.
UV 0 out of 12
Pollen 6.30 out of 12
Ozone Good
PM2.5 Moderate
Flu Activity Not available.
METAR KAUS 200953Z 18006KT 9SM BKN017 26/23 A2993 RMK AO2 SLP121 T02560233

More Conditions Fewer Conditions

Nowcast | as of 4:39 am CDT on August 20, 2014

Through 6 am...spotty showers will move north across areas along and east of Interstate 35. Only trace amounts of precipitation are expected.

×

10-Day Weather Forecast

Almanac

Astronomy

Aug. 20, 2014 Rise Set
Actual Time 7:00 AM CDT 8:06 PM CDT
Civil Twilight 6:35 AM CDT 8:30 PM CDT
Nautical Twilight 6:05 AM CDT 9:00 PM CDT
Astronomical Twilight 5:35 AM CDT 9:30 PM CDT
Moon 2:48 AM CDT 4:44 PM CDT
Length of Visible Light 13h 55m
Length of Day
13h 05m
Tomorrow will be 1m 39s shorter.
Waning Crescent, 22% of the Moon is Illuminated
Today
Waning Crescent
Aug 25
New
Sep 2
First Quarter
Sep 8
Full
Sep 15
Last Quarter

Today's Extremes

State Highs State Lows

Community

WunderPhotos

Upload Photos

1,745,604 photos uploaded!

Nearby

Air Quality

  Air Quality AQ Index Pollutant
Yesterday Moderate
PM2.5
Yesterday Good
OZONE
Current Moderate
PM2.5
Current Good
OZONE
Wednesday Good
PM10
Wednesday Good
OZONE
Thursday Good
PM10
Thursday Good
OZONE
Friday Good
PM10
Friday Good
OZONE

Snow Depth

Station Depth Elevation
No new snow has been reported.

Earthquake Activity

City Distance Mag. Time & Date
No recent earthquake activity has been reported nearby.
Minimum magnitude displayed is 2.5.

Coastal Water Temperatures

Place Temperature
No Stations Reporting

Nearby Weather Stations